createdAt,value
2023-04-10T00:00:04.191Z,96402.13
2023-04-10T00:02:31.810Z,96399.56
2023-04-10T00:04:59.671Z,96395.78
2023-04-10T00:07:27.432Z,96384.66
2023-04-10T00:09:56.342Z,96381.03
2023-04-10T00:12:23.917Z,96383.78
2023-04-10T00:14:51.360Z,96368.50
2023-04-10T00:17:18.804Z,96364.88
2023-04-10T00:19:46.224Z,96375.53
2023-04-10T00:22:13.747Z,96369.31
2023-04-10T00:24:41.211Z,96369.31
2023-04-10T00:27:10.001Z,96375.44
2023-04-10T00:29:37.465Z,96373.59
2023-04-10T00:32:04.990Z,96372.78
2023-04-10T00:34:32.623Z,96361.28
2023-04-10T00:37:00.383Z,96370.00
2023-04-10T00:39:27.985Z,96364.81
2023-04-10T00:41:55.759Z,96361.88
2023-04-10T00:44:24.525Z,96360.19
2023-04-10T00:46:52.158Z,96349.28
2023-04-10T00:49:19.681Z,96314.91
2023-04-10T00:51:47.881Z,96345.53
2023-04-10T00:54:15.421Z,96345.72
2023-04-10T00:56:43.945Z,96352.03
2023-04-10T00:59:12.504Z,96346.94
2023-04-10T01:01:41.324Z,96340.38
2023-04-10T01:04:09.779Z,96302.59
2023-04-10T01:06:52.605Z,96328.28
2023-04-10T01:09:33.944Z,96327.13
2023-04-10T01:12:09.471Z,96328.25
2023-04-10T01:14:47.444Z,96319.41
2023-04-10T01:17:22.751Z,96316.88
2023-04-10T01:20:02.973Z,96299.84
2023-04-10T01:22:36.497Z,96298.69
2023-04-10T01:25:25.499Z,96291.38
2023-04-10T01:28:12.439Z,96238.19
2023-04-10T01:30:42.120Z,96283.38
2023-04-10T01:33:13.576Z,96275.41
2023-04-10T01:35:43.982Z,96276.97
2023-04-10T01:38:13.046Z,96277.81
2023-04-10T01:40:42.169Z,96265.34
2023-04-10T01:43:12.509Z,96262.81
2023-04-10T01:45:43.684Z,96252.13
2023-04-10T01:48:11.580Z,96256.06
2023-04-10T01:50:39.623Z,96256.31
2023-04-10T01:53:08.329Z,96256.94
2023-04-10T01:55:38.095Z,96255.75
2023-04-10T01:58:05.710Z,96239.09
2023-04-10T02:00:38.984Z,96256.94
2023-04-10T02:03:08.343Z,96243.84
2023-04-10T02:05:47.073Z,96226.78
2023-04-10T02:08:19.398Z,96238.09
2023-04-10T02:10:59.465Z,96234.31
2023-04-10T02:13:29.430Z,96228.97
2023-04-10T02:16:02.131Z,96233.53
2023-04-10T02:18:35.302Z,96231.53
2023-04-10T02:21:03.664Z,96232.34
2023-04-10T02:23:31.113Z,96233.34
2023-04-10T02:25:58.614Z,96238.88
2023-04-10T02:28:26.105Z,96229.19
2023-04-10T02:30:53.614Z,96225.19
2023-04-10T02:33:21.279Z,96221.66
2023-04-10T02:35:50.131Z,96239.50
2023-04-10T02:38:17.615Z,96236.50
2023-04-10T02:40:46.059Z,96191.28
2023-04-10T02:43:13.556Z,96242.84
2023-04-10T02:45:41.611Z,96240.66
2023-04-10T02:48:10.880Z,96232.72
2023-04-10T02:50:38.357Z,96225.41
2023-04-10T02:53:07.265Z,96223.63
2023-04-10T02:55:34.720Z,96222.03
2023-04-10T02:58:02.169Z,96220.03
2023-04-10T03:00:29.812Z,96219.06
2023-04-10T03:02:57.347Z,96217.25
2023-04-10T03:05:24.985Z,96195.66
2023-04-10T03:07:54.116Z,96192.47
2023-04-10T03:10:23.278Z,96184.75
2023-04-10T03:12:50.774Z,96190.50
2023-04-10T03:15:18.323Z,96197.44
2023-04-10T03:17:46.116Z,96197.06
2023-04-10T03:20:14.208Z,96194.06
2023-04-10T03:22:41.625Z,96166.09
2023-04-10T03:25:09.924Z,96184.75
2023-04-10T03:27:39.372Z,96188.13
2023-04-10T03:30:08.488Z,96192.09
2023-04-10T03:32:35.949Z,96186.72
2023-04-10T03:35:03.416Z,96188.72
2023-04-10T03:37:31.598Z,96189.31
2023-04-10T03:39:59.046Z,96195.06
2023-04-10T03:42:26.970Z,96185.72
2023-04-10T03:44:55.831Z,96178.59
2023-04-10T03:47:23.266Z,96161.94
2023-04-10T03:49:50.722Z,96158.56
2023-04-10T03:52:18.144Z,96168.88
2023-04-10T03:54:45.884Z,96144.47
2023-04-10T03:57:13.305Z,96147.66
2023-04-10T03:59:40.729Z,96160.56
2023-04-10T04:02:09.680Z,96155.19
2023-04-10T04:04:37.551Z,96144.47
2023-04-10T04:07:05.083Z,96155.75
2023-04-10T04:09:32.529Z,96154.34
2023-04-10T04:11:59.926Z,96146.03
2023-04-10T04:14:27.373Z,96153.34
2023-04-10T04:16:54.879Z,96158.13
2023-04-10T04:19:23.655Z,96152.59
2023-04-10T04:21:51.160Z,96158.53
2023-04-10T04:24:18.605Z,96163.94
2023-04-10T04:26:46.464Z,96163.16
2023-04-10T04:29:13.923Z,96149.47
2023-04-10T04:31:41.355Z,96139.13
2023-04-10T04:34:08.820Z,96141.13
2023-04-10T04:36:37.611Z,96133.00
2023-04-10T04:39:05.284Z,96136.28
2023-04-10T04:41:33.163Z,96128.75
2023-04-10T04:44:02.933Z,96137.25
2023-04-10T04:46:30.676Z,96135.28
2023-04-10T04:48:58.142Z,96136.47
2023-04-10T04:51:25.690Z,96135.69
2023-04-10T04:53:54.647Z,96130.94
2023-04-10T04:56:22.221Z,96137.47
2023-04-10T04:58:49.649Z,96147.75
2023-04-10T05:01:17.154Z,96141.22
2023-04-10T05:03:44.760Z,96139.44
2023-04-10T05:06:12.308Z,96146.13
2023-04-10T05:08:39.736Z,96149.88
2023-04-10T05:11:08.693Z,96131.81
2023-04-10T05:13:36.172Z,96137.94
2023-04-10T05:16:03.646Z,96137.94
2023-04-10T05:18:31.162Z,96137.06
2023-04-10T05:20:58.693Z,96135.66
2023-04-10T05:23:26.222Z,96115.75
2023-04-10T05:25:53.676Z,96099.03
2023-04-10T05:28:23.238Z,96136.59
2023-04-10T05:30:50.808Z,96119.72
2023-04-10T05:33:18.369Z,96147.22
2023-04-10T05:35:46.992Z,96140.41
2023-04-10T05:38:14.600Z,96139.34
2023-04-10T05:40:46.351Z,96143.25
2023-04-10T05:43:13.871Z,96137.09
2023-04-10T05:45:44.856Z,96134.88
2023-04-10T05:48:12.356Z,96140.00
2023-04-10T05:50:39.802Z,96155.59
2023-04-10T05:53:07.246Z,96154.56
2023-04-10T05:55:34.645Z,96143.34
2023-04-10T05:58:02.087Z,96089.78
2023-04-10T06:00:29.720Z,96138.59
2023-04-10T06:02:58.670Z,96133.50
2023-04-10T06:05:26.309Z,96146.16
2023-04-10T06:07:54.798Z,96138.97
2023-04-10T06:10:23.153Z,96137.50
2023-04-10T06:12:50.575Z,96138.13
2023-04-10T06:15:18.121Z,96129.56
2023-04-10T06:17:45.654Z,96138.25
2023-04-10T06:20:14.669Z,96138.56
2023-04-10T06:22:42.114Z,96130.72
2023-04-10T06:25:10.715Z,96129.34
2023-04-10T06:27:38.246Z,96104.66
2023-04-10T06:30:07.053Z,96109.19
2023-04-10T06:32:34.560Z,96121.06
2023-04-10T06:35:02.502Z,96118.13
2023-04-10T06:37:32.632Z,96119.25
2023-04-10T06:40:04.921Z,96097.59
2023-04-10T06:42:32.458Z,96112.81
2023-04-10T06:44:59.968Z,96128.72
2023-04-10T06:47:27.579Z,96100.97
2023-04-10T06:49:55.263Z,96136.69
2023-04-10T06:52:22.694Z,96125.16
2023-04-10T06:54:51.474Z,96132.28
2023-04-10T06:57:18.997Z,96135.63
2023-04-10T06:59:46.445Z,96119.56
2023-04-10T07:02:13.909Z,96136.28
2023-04-10T07:04:41.330Z,96140.59
2023-04-10T07:07:09.955Z,96131.34
2023-04-10T07:09:37.776Z,96126.44
2023-04-10T07:12:06.679Z,96127.47
2023-04-10T07:14:35.529Z,96128.25
2023-04-10T07:17:03.147Z,96134.47
2023-04-10T07:19:31.207Z,96114.94
2023-04-10T07:21:58.722Z,96133.88
2023-04-10T07:24:26.273Z,96137.81
2023-04-10T07:26:53.747Z,96128.53
2023-04-10T07:29:22.506Z,96127.84
2023-04-10T07:31:50.498Z,96124.28
2023-04-10T07:34:18.185Z,96114.03
2023-04-10T07:36:46.140Z,96130.66
2023-04-10T07:39:13.735Z,96109.59
2023-04-10T07:41:41.191Z,96126.81
2023-04-10T07:44:08.591Z,96128.63
2023-04-10T07:46:37.571Z,96136.84
2023-04-10T07:49:06.168Z,96131.63
2023-04-10T07:51:35.554Z,96128.97
2023-04-10T07:54:04.207Z,96117.41
2023-04-10T07:56:31.965Z,96120.78
2023-04-10T07:59:00.673Z,96114.00
2023-04-10T08:01:28.560Z,96102.22
2023-04-10T08:03:57.440Z,96107.97
2023-04-10T08:06:25.745Z,96106.66
2023-04-10T08:08:53.399Z,96112.44
2023-04-10T08:11:25.974Z,96112.47
2023-04-10T08:13:53.502Z,96110.03
2023-04-10T08:16:24.772Z,96113.97
2023-04-10T08:18:52.635Z,96109.09
2023-04-10T08:21:22.551Z,96108.13
2023-04-10T08:23:51.300Z,96104.69
2023-04-10T08:26:19.489Z,96106.16
2023-04-10T08:28:49.996Z,96104.28
2023-04-10T08:31:17.735Z,96099.69
2023-04-10T08:33:45.660Z,96103.06
2023-04-10T08:36:16.517Z,96099.34
2023-04-10T08:38:47.254Z,96100.50
2023-04-10T08:41:16.649Z,96088.69
2023-04-10T08:43:45.593Z,96085.38
2023-04-10T08:46:14.158Z,96074.44
2023-04-10T08:48:48.033Z,96078.34
2023-04-10T08:51:26.389Z,96066.44
2023-04-10T08:54:03.156Z,96053.94
2023-04-10T08:56:33.582Z,96052.88
2023-04-10T08:59:02.573Z,96046.28
2023-04-10T09:01:30.164Z,96050.94
2023-04-10T09:03:59.398Z,96043.16
2023-04-10T09:06:27.542Z,96040.66
2023-04-10T09:08:56.348Z,96020.72
2023-04-10T09:11:23.764Z,96026.25
2023-04-10T09:13:52.022Z,96030.16
2023-04-10T09:16:29.578Z,96027.63
2023-04-10T09:18:57.285Z,96017.94
2023-04-10T09:21:24.735Z,96022.72
2023-04-10T09:24:02.215Z,96011.00
2023-04-10T09:26:31.504Z,96028.34
2023-04-10T09:29:01.138Z,96018.75
2023-04-10T09:31:36.614Z,96036.31
2023-04-10T09:34:12.613Z,96039.78
2023-04-10T09:36:41.902Z,96043.75
2023-04-10T09:39:12.097Z,96036.41
2023-04-10T09:41:51.153Z,96037.19
2023-04-10T09:44:20.740Z,96024.13
2023-04-10T09:46:51.339Z,96018.66
2023-04-10T09:49:19.013Z,96012.94
2023-04-10T09:51:47.335Z,96016.91
2023-04-10T09:54:16.407Z,96021.88
2023-04-10T09:56:47.067Z,96019.78
2023-04-10T09:59:15.629Z,96022.41
2023-04-10T10:01:43.902Z,96019.25
2023-04-10T10:04:12.589Z,96014.53
2023-04-10T10:06:40.316Z,95995.41
2023-04-10T10:09:08.166Z,95960.63
2023-04-10T10:11:37.302Z,96005.06
2023-04-10T10:14:10.309Z,95986.78
2023-04-10T10:16:44.520Z,95993.53
2023-04-10T10:19:20.456Z,95999.59
2023-04-10T10:21:49.599Z,95988.88
2023-04-10T10:24:20.498Z,95952.47
2023-04-10T10:26:51.279Z,95986.72
2023-04-10T10:29:20.242Z,95989.34
2023-04-10T10:31:48.635Z,95963.78
2023-04-10T10:34:16.778Z,95960.56
2023-04-10T10:36:44.522Z,95944.88
2023-04-10T10:39:27.776Z,95954.34
2023-04-10T10:42:03.266Z,95930.66
2023-04-10T10:44:40.008Z,95915.53
2023-04-10T10:47:15.137Z,95876.03
2023-04-10T10:49:59.382Z,95924.03
2023-04-10T10:52:41.286Z,95927.28
2023-04-10T10:55:36.706Z,95921.69
2023-04-10T10:58:07.487Z,95930.81
2023-04-10T11:01:09.860Z,95916.44
2023-04-10T11:03:38.298Z,95906.03
2023-04-10T11:06:09.192Z,95917.84
2023-04-10T11:08:40.551Z,95896.88
2023-04-10T11:11:09.189Z,95897.38
2023-04-10T11:13:40.306Z,95905.06
2023-04-10T11:16:10.488Z,95885.00
2023-04-10T11:19:14.051Z,95894.13
2023-04-10T11:22:10.560Z,95877.84
2023-04-10T11:24:58.774Z,95881.72
2023-04-10T11:27:45.740Z,95889.78
2023-04-10T11:30:34.612Z,95876.41
2023-04-10T11:33:03.770Z,95860.66
2023-04-10T11:35:32.645Z,95872.63
2023-04-10T11:38:13.795Z,95861.34
2023-04-10T11:40:58.677Z,95876.03
2023-04-10T11:43:26.479Z,95865.09
2023-04-10T11:46:05.584Z,95858.81
2023-04-10T11:48:33.214Z,95867.34
2023-04-10T11:51:07.284Z,95859.19
2023-04-10T11:53:35.124Z,95831.25
2023-04-10T11:56:02.823Z,95846.50
2023-04-10T11:58:31.949Z,95834.06
2023-04-10T12:01:05.409Z,95828.22
2023-04-10T12:03:37.735Z,95838.88
2023-04-10T12:06:08.521Z,95845.00
2023-04-10T12:08:37.780Z,95819.16
2023-04-10T12:11:05.578Z,95833.56
2023-04-10T12:13:33.428Z,95820.22
2023-04-10T12:16:05.445Z,95810.72
2023-04-10T12:18:33.206Z,95824.31
2023-04-10T12:21:00.919Z,95806.97
2023-04-10T12:23:29.886Z,95805.75
2023-04-10T12:26:11.929Z,95814.19
2023-04-10T12:28:41.000Z,95814.84
2023-04-10T12:31:10.399Z,95802.47
2023-04-10T12:33:37.913Z,95809.50
2023-04-10T12:36:05.993Z,95801.91
2023-04-10T12:38:41.193Z,95821.72
2023-04-10T12:41:10.028Z,95817.16
2023-04-10T12:43:39.002Z,95805.69
2023-04-10T12:46:07.822Z,95808.63
2023-04-10T12:48:37.219Z,95808.38
2023-04-10T12:51:05.282Z,95799.28
2023-04-10T12:53:32.869Z,95802.81
2023-04-10T12:56:02.458Z,95763.84
2023-04-10T12:58:31.233Z,95768.75
2023-04-10T13:01:00.334Z,95792.78
2023-04-10T13:03:28.151Z,95775.81
2023-04-10T13:05:57.017Z,95771.94
2023-04-10T13:08:24.534Z,95786.84
2023-04-10T13:10:52.040Z,95782.28
2023-04-10T13:13:19.737Z,95777.03
2023-04-10T13:15:47.765Z,95765.31
2023-04-10T13:18:15.296Z,95757.25
2023-04-10T13:20:42.851Z,95759.56
2023-04-10T13:23:11.634Z,95755.22
2023-04-10T13:25:42.156Z,95738.88
2023-04-10T13:28:11.156Z,95729.03
2023-04-10T13:30:40.291Z,95733.56
2023-04-10T13:33:08.721Z,95742.69
2023-04-10T13:35:36.311Z,95728.03
2023-04-10T13:38:03.870Z,95742.00
2023-04-10T13:40:33.241Z,95749.56
2023-04-10T13:43:00.723Z,95738.75
2023-04-10T13:45:28.173Z,95720.38
2023-04-10T13:47:55.762Z,95727.81
2023-04-10T13:50:23.271Z,95723.91
2023-04-10T13:52:52.148Z,95720.94
2023-04-10T13:55:21.116Z,95719.97
2023-04-10T13:57:49.877Z,95704.59
2023-04-10T14:00:19.042Z,95689.16
2023-04-10T14:02:46.670Z,95684.31
2023-04-10T14:05:14.216Z,95680.78
2023-04-10T14:07:41.633Z,95693.91
2023-04-10T14:10:10.498Z,95701.53
2023-04-10T14:12:38.119Z,95696.41
2023-04-10T14:15:08.300Z,95689.09
2023-04-10T14:17:36.272Z,95702.00
2023-04-10T14:20:03.785Z,95672.63
2023-04-10T14:22:31.596Z,95691.84
2023-04-10T14:25:11.702Z,95678.47
2023-04-10T14:27:40.823Z,95681.03
2023-04-10T14:30:10.972Z,95680.13
2023-04-10T14:32:39.543Z,95656.16
2023-04-10T14:35:08.266Z,95656.16
2023-04-10T14:37:35.726Z,95663.31
2023-04-10T14:40:04.759Z,95666.47
2023-04-10T14:42:32.321Z,95665.06
2023-04-10T14:44:59.784Z,95670.59
2023-04-10T14:47:28.671Z,95647.66
2023-04-10T14:49:56.088Z,95650.63
2023-04-10T14:52:23.542Z,95634.50
2023-04-10T14:54:50.993Z,95626.41
2023-04-10T14:57:18.543Z,95626.03
2023-04-10T14:59:45.961Z,95628.03
2023-04-10T15:02:13.453Z,95616.34
2023-04-10T15:04:42.235Z,95602.19
2023-04-10T15:07:09.674Z,95607.94
2023-04-10T15:09:37.357Z,95604.72
2023-04-10T15:12:05.223Z,95574.44
2023-04-10T15:14:32.717Z,95603.59
2023-04-10T15:17:00.239Z,95598.72
2023-04-10T15:19:27.722Z,95591.97
2023-04-10T15:21:56.631Z,95600.09
2023-04-10T15:24:24.105Z,95608.28
2023-04-10T15:26:53.293Z,95589.53
2023-04-10T15:29:20.688Z,95600.63
2023-04-10T15:31:48.099Z,95589.91
2023-04-10T15:34:15.604Z,95590.19
2023-04-10T15:36:43.118Z,95597.28
2023-04-10T15:39:12.318Z,95595.22
2023-04-10T15:41:39.741Z,95593.16
2023-04-10T15:44:07.171Z,95583.22
2023-04-10T15:46:34.602Z,95593.94
2023-04-10T15:49:02.171Z,95592.09
2023-04-10T15:51:29.624Z,95574.63
2023-04-10T15:53:57.226Z,95582.72
2023-04-10T15:56:26.128Z,95568.81
2023-04-10T15:58:53.571Z,95559.06
2023-04-10T16:01:20.982Z,95541.19
2023-04-10T16:03:49.226Z,95524.97
2023-04-10T16:06:16.891Z,95524.13
2023-04-10T16:08:44.506Z,95535.09
2023-04-10T16:11:11.952Z,95528.91
2023-04-10T16:13:43.649Z,95489.53
2023-04-10T16:16:15.366Z,95518.72
2023-04-10T16:18:44.641Z,95508.00
2023-04-10T16:21:13.153Z,95507.53
2023-04-10T16:23:41.002Z,95498.84
2023-04-10T16:26:08.468Z,95501.28
2023-04-10T16:28:35.994Z,95491.84
2023-04-10T16:31:05.139Z,95493.94
2023-04-10T16:33:32.642Z,95497.06
2023-04-10T16:36:02.910Z,95491.34
2023-04-10T16:38:30.784Z,95495.34
2023-04-10T16:40:58.467Z,95483.22
2023-04-10T16:43:25.892Z,95464.13
2023-04-10T16:45:55.813Z,95469.84
2023-04-10T16:48:27.129Z,95446.56
2023-04-10T16:50:54.748Z,95463.72
2023-04-10T16:53:22.794Z,95429.56
2023-04-10T16:56:07.846Z,95451.38
2023-04-10T16:58:36.713Z,95422.28
2023-04-10T17:01:15.174Z,95460.50
2023-04-10T17:03:44.190Z,95413.06
2023-04-10T17:06:12.010Z,95440.66
2023-04-10T17:08:39.715Z,95429.72
2023-04-10T17:11:07.643Z,95375.38
2023-04-10T17:13:38.367Z,95425.44
2023-04-10T17:16:08.858Z,95450.28
2023-04-10T17:18:37.649Z,95464.72
2023-04-10T17:21:11.073Z,95464.19
2023-04-10T17:23:38.565Z,95446.97
2023-04-10T17:26:06.723Z,95428.19
2023-04-10T17:28:34.465Z,95431.88
2023-04-10T17:31:06.548Z,95405.06
2023-04-10T17:33:34.215Z,95415.28
2023-04-10T17:36:01.983Z,95405.75
2023-04-10T17:38:31.107Z,95401.88
2023-04-10T17:40:58.718Z,95412.03
2023-04-10T17:43:26.401Z,95416.03
2023-04-10T17:45:53.999Z,95412.84
2023-04-10T17:48:21.704Z,95398.31
2023-04-10T17:50:51.448Z,95381.25
2023-04-10T17:53:19.112Z,95358.69
2023-04-10T17:55:48.090Z,95385.06
2023-04-10T17:58:15.690Z,95399.69
2023-04-10T18:00:43.666Z,95394.72
2023-04-10T18:03:11.396Z,95400.47
2023-04-10T18:05:39.659Z,95391.91
2023-04-10T18:08:08.499Z,95415.63
2023-04-10T18:10:39.082Z,95361.69
2023-04-10T18:13:08.140Z,95400.25
2023-04-10T18:15:35.852Z,95400.50
2023-04-10T18:18:03.511Z,95395.56
2023-04-10T18:20:31.129Z,95393.97
2023-04-10T18:22:58.739Z,95362.44
2023-04-10T18:25:26.516Z,95368.44
2023-04-10T18:30:33.468Z,95376.47
2023-04-10T18:33:05.190Z,95375.19
2023-04-10T18:35:33.577Z,95366.28
2023-04-10T18:38:01.150Z,95357.16
2023-04-10T18:40:28.795Z,95363.66
2023-04-10T18:42:56.340Z,95365.25
2023-04-10T18:45:23.929Z,95327.94
2023-04-10T18:47:53.086Z,95369.16
2023-04-10T18:50:20.772Z,95323.00
2023-04-10T18:52:48.535Z,95310.00
2023-04-10T18:55:16.385Z,95317.78
2023-04-10T18:57:43.964Z,95359.22
2023-04-10T19:00:12.640Z,95354.78
2023-04-10T19:02:40.309Z,95336.28
2023-04-10T19:05:14.139Z,95369.13
2023-04-10T19:07:47.262Z,95359.22
2023-04-10T19:10:20.749Z,95379.22
2023-04-10T19:12:52.755Z,95365.16
2023-04-10T19:15:20.392Z,95337.53
2023-04-10T19:17:47.946Z,95368.50
2023-04-10T19:20:16.888Z,95386.25
2023-04-10T19:23:04.406Z,95372.16
2023-04-10T19:25:32.087Z,95402.44
2023-04-10T19:27:59.685Z,95399.34
2023-04-10T19:30:27.207Z,95381.97
2023-04-10T19:32:55.785Z,95408.28
2023-04-10T19:35:24.742Z,95386.16
2023-04-10T19:37:52.189Z,95389.03
2023-04-10T19:40:19.986Z,95380.22
2023-04-10T19:42:47.513Z,95402.88
2023-04-10T19:45:16.262Z,95394.25
2023-04-10T19:47:43.814Z,95424.47
2023-04-10T19:50:11.698Z,95406.94
2023-04-10T19:52:40.595Z,95424.09
2023-04-10T19:55:08.958Z,95423.56
2023-04-10T19:57:36.979Z,95431.59
2023-04-10T20:00:04.768Z,95448.75
2023-04-10T20:02:32.583Z,95435.72
2023-04-10T20:05:00.597Z,95437.78
2023-04-10T20:07:28.302Z,95443.75
2023-04-10T20:09:58.697Z,95403.72
2023-04-10T20:12:26.264Z,95434.28
2023-04-10T20:14:53.886Z,95432.38
2023-04-10T20:17:21.463Z,95401.59
2023-04-10T20:19:49.104Z,95419.09
2023-04-10T20:22:16.590Z,95422.19
2023-04-10T20:24:44.138Z,95433.88
2023-04-10T20:27:14.364Z,95411.47
2023-04-10T20:29:42.107Z,95414.06
2023-04-10T20:32:09.804Z,95371.78
2023-04-10T20:34:37.774Z,95391.09
2023-04-10T20:37:06.030Z,95395.25
2023-04-10T20:39:33.698Z,95439.06
2023-04-10T20:42:01.513Z,95417.09
2023-04-10T20:44:30.461Z,95449.16
2023-04-10T20:46:58.037Z,95406.34
2023-04-10T20:49:27.523Z,95449.56
2023-04-10T20:51:55.096Z,95452.13
2023-04-10T20:54:23.826Z,95455.44
2023-04-10T20:56:51.486Z,95434.25
2023-04-10T20:59:19.464Z,95456.69
2023-04-10T21:01:48.519Z,95422.97
2023-04-10T21:04:16.298Z,95467.50
2023-04-10T21:06:44.050Z,95446.44
2023-04-10T21:09:11.914Z,95413.53
2023-04-10T21:11:39.787Z,95391.91
2023-04-10T21:14:09.112Z,95402.25
2023-04-10T21:16:41.159Z,95445.56
2023-04-10T21:19:10.446Z,95447.81
2023-04-10T21:21:38.686Z,95431.34
2023-04-10T21:24:12.884Z,95411.53
2023-04-10T21:26:41.085Z,95427.97
2023-04-10T21:29:09.080Z,95430.16
2023-04-10T21:31:36.977Z,95434.78
2023-04-10T21:34:04.818Z,95401.56
2023-04-10T21:36:34.987Z,95385.56
2023-04-10T21:39:02.680Z,95404.34
2023-04-10T21:41:30.762Z,95346.34
2023-04-10T21:44:00.330Z,95416.13
2023-04-10T21:46:28.142Z,95398.38
2023-04-10T21:48:56.081Z,95388.28
2023-04-10T21:51:25.644Z,95380.28
2023-04-10T21:53:55.671Z,95349.81
2023-04-10T21:56:23.732Z,95358.25
2023-04-10T21:58:53.019Z,95318.63
2023-04-10T22:01:20.711Z,95346.34
2023-04-10T22:03:48.285Z,95358.06
2023-04-10T22:06:16.064Z,95373.59
2023-04-10T22:08:43.533Z,95370.94
2023-04-10T22:11:12.473Z,95390.13
2023-04-10T22:13:39.985Z,95407.47
2023-04-10T22:16:07.773Z,95389.75
2023-04-10T22:18:35.265Z,95364.22
2023-04-10T22:21:02.809Z,95377.78
2023-04-10T22:23:30.261Z,95383.72
2023-04-10T22:26:00.354Z,95349.88
2023-04-10T22:28:29.746Z,95337.53
2023-04-10T22:30:57.600Z,95335.91
2023-04-10T22:33:25.434Z,95311.25
2023-04-10T22:35:53.372Z,95343.34
2023-04-10T22:38:20.877Z,95350.91
2023-04-10T22:40:48.688Z,95329.91
2023-04-10T22:43:16.283Z,95333.22
2023-04-10T22:45:45.140Z,95345.06
2023-04-10T22:48:12.674Z,95357.81
2023-04-10T22:50:40.290Z,95342.03
2023-04-10T22:53:08.060Z,95344.84
2023-04-10T22:55:37.789Z,95345.06
2023-04-10T22:58:05.314Z,95367.69
2023-04-10T23:00:33.802Z,95340.69
2023-04-10T23:03:03.125Z,95350.50
2023-04-10T23:05:32.843Z,95324.53
2023-04-10T23:08:00.326Z,95285.25
2023-04-10T23:10:27.960Z,95339.19
2023-04-10T23:12:55.637Z,95321.78
2023-04-10T23:15:23.136Z,95281.34
2023-04-10T23:17:50.639Z,95320.09
2023-04-10T23:20:19.842Z,95308.94
2023-04-10T23:22:47.313Z,95296.22
2023-04-10T23:25:15.643Z,95302.25
2023-04-10T23:27:43.155Z,95291.94
2023-04-10T23:30:11.098Z,95295.44
2023-04-10T23:32:38.631Z,95292.63
2023-04-10T23:35:07.190Z,95299.88
2023-04-10T23:37:36.328Z,95326.28
2023-04-10T23:40:04.110Z,95308.03
2023-04-10T23:42:31.572Z,95312.13
2023-04-10T23:44:59.041Z,95296.06
2023-04-10T23:47:26.727Z,95313.28
2023-04-10T23:49:55.819Z,95341.78
2023-04-10T23:52:23.539Z,95339.19
2023-04-10T23:54:52.387Z,95336.06
2023-04-10T23:57:19.825Z,95353.69
2023-04-10T23:59:47.736Z,95312.88
